Time;durP1;ratioP1;P1;durP2;ratioP2;P2;SDS_P1;SDS_P2;PMS_P1;PMS_P2;Temp;Humidity;BMP_temperature;BMP_pressure;BME280_temperature;BME280_humidity;BME280_pressure;Samples;Min_cycle;Max_cycle;Signal;HPM_P1;HPM_P2
2023/04/28 00:00:54;;;;;;;66.75;39.83;;;13.80;90.00;;;;;;4593321;19;20345;-20
2023/04/28 00:02:26;;;;;;;63.63;39.30;;;13.80;90.10;;;;;;4593693;19;20014;-22
2023/04/28 00:03:59;;;;;;;58.43;37.27;;;13.70;90.10;;;;;;4593615;19;20531;-21
2023/04/28 00:05:32;;;;;;;50.90;33.50;;;13.70;90.10;;;;;;4593047;19;20007;-20
2023/04/28 00:07:05;;;;;;;50.60;33.50;;;13.70;90.20;;;;;;4592979;19;20030;-21
2023/04/28 00:08:36;;;;;;;44.38;30.08;;;13.70;90.20;;;;;;4593309;19;20013;-20
2023/04/28 00:10:09;;;;;;;43.93;29.13;;;13.70;90.20;;;;;;4593487;19;20325;-20
2023/04/28 00:11:41;;;;;;;38.23;25.97;;;13.70;90.10;;;;;;4593873;19;20006;-20
2023/04/28 00:13:13;;;;;;;40.20;26.13;;;13.70;90.10;;;;;;4590541;19;20014;-21
2023/04/28 00:14:45;;;;;;;47.33;30.27;;;13.70;90.00;;;;;;4590873;19;20010;-21
2023/04/28 00:16:17;;;;;;;48.60;31.07;;;13.70;89.90;;;;;;4591045;19;20046;-21
2023/04/28 00:17:50;;;;;;;63.97;38.97;;;13.70;89.70;;;;;;4590792;19;20512;-21
2023/04/28 00:19:21;;;;;;;112.83;65.87;;;13.70;89.80;;;;;;4590210;19;20014;-21
2023/04/28 00:20:54;;;;;;;145.43;85.47;;;13.70;89.80;;;;;;4591022;19;20488;-20
2023/04/28 00:22:26;;;;;;;;;;;13.60;89.90;;;;;;4591042;19;20015;-21
2023/04/28 00:23:56;;;;;;;44.63;28.87;;;13.70;90.00;;;;;;4590583;19;19978;-20
2023/04/28 00:25:29;;;;;;;39.17;25.13;;;13.60;89.90;;;;;;4590567;19;20082;-20
2023/04/28 00:27:02;;;;;;;37.40;24.87;;;13.70;90.00;;;;;;4590749;19;20793;-20
2023/04/28 00:28:34;;;;;;;41.63;27.10;;;13.60;90.00;;;;;;4590934;19;20522;-20
2023/04/28 00:30:06;;;;;;;46.10;30.63;;;13.60;89.90;;;;;;4589958;19;20437;-20
2023/04/28 00:31:40;;;;;;;36.70;23.53;;;13.60;89.60;;;;;;4590376;19;20012;-21
2023/04/28 00:33:11;;;;;;;32.00;20.80;;;13.60;89.70;;;;;;4590363;19;20615;-20
2023/04/28 00:34:43;;;;;;;33.20;22.93;;;13.60;89.90;;;;;;4590731;19;20445;-20
2023/04/28 00:36:14;;;;;;;30.92;20.90;;;13.60;89.80;;;;;;4589145;19;20579;-20
2023/04/28 00:37:46;;;;;;;31.17;21.10;;;13.60;89.90;;;;;;4590226;19;20049;-21
2023/04/28 00:39:21;;;;;;;58.53;38.63;;;13.60;89.80;;;;;;4589708;19;20437;-20
2023/04/28 00:40:54;;;;;;;45.50;31.63;;;13.60;90.00;;;;;;4590076;19;20098;-21
2023/04/28 00:42:25;;;;;;;47.63;32.55;;;13.60;89.70;;;;;;4590048;19;20100;-20
2023/04/28 00:43:56;;;;;;;49.03;31.67;;;13.60;89.50;;;;;;4590111;19;20476;-20
2023/04/28 00:45:28;;;;;;;53.05;33.55;;;13.60;89.30;;;;;;4590796;19;20093;-21
2023/04/28 00:47:01;;;;;;;54.77;36.60;;;13.60;89.30;;;;;;4590192;19;20086;-20
2023/04/28 00:48:32;;;;;;;51.50;32.63;;;13.60;89.60;;;;;;4589965;19;20033;-21
2023/04/28 00:50:05;;;;;;;45.07;28.03;;;13.60;89.60;;;;;;4589926;19;20010;-21
2023/04/28 00:51:36;;;;;;;41.65;26.90;;;13.60;89.70;;;;;;4590547;19;20035;-21
2023/04/28 00:53:10;;;;;;;39.33;25.63;;;13.60;89.40;;;;;;4590144;19;20010;-21
2023/04/28 00:54:43;;;;;;;49.03;32.03;;;13.60;89.60;;;;;;4592186;19;20457;-20
2023/04/28 00:56:15;;;;;;;46.63;30.67;;;13.60;89.80;;;;;;4590995;19;20436;-21
2023/04/28 00:57:48;;;;;;;47.60;31.93;;;13.60;89.50;;;;;;4591742;19;20077;-21
2023/04/28 00:59:19;;;;;;;48.63;30.55;;;13.50;89.40;;;;;;4590710;19;20451;-21
2023/04/28 01:00:50;;;;;;;60.75;40.17;;;13.50;89.00;;;;;;4591709;19;20027;-21
2023/04/28 01:02:21;;;;;;;56.00;35.65;;;13.50;89.00;;;;;;4592374;19;20313;-21
2023/04/28 01:03:56;;;;;;;37.80;23.93;;;13.50;89.10;;;;;;4592014;19;20047;-21
2023/04/28 01:05:29;;;;;;;31.77;21.10;;;13.50;89.20;;;;;;4591572;19;20437;-21
2023/04/28 01:07:01;;;;;;;33.08;21.17;;;13.50;89.20;;;;;;4592029;19;20010;-20
2023/04/28 01:08:32;;;;;;;31.88;20.63;;;13.50;89.10;;;;;;4590670;19;20113;-21
2023/04/28 01:10:05;;;;;;;29.60;19.63;;;13.50;89.10;;;;;;4591402;19;20038;-21
2023/04/28 01:11:37;;;;;;;31.30;20.83;;;13.50;89.10;;;;;;4590600;19;20035;-21
2023/04/28 01:13:08;;;;;;;32.65;22.20;;;13.50;89.20;;;;;;4591631;19;21016;-21
2023/04/28 01:14:41;;;;;;;31.40;20.73;;;13.50;89.10;;;;;;4592172;19;20003;-21
2023/04/28 01:16:14;;;;;;;36.23;22.77;;;13.50;89.00;;;;;;4591751;19;20535;-21
2023/04/28 01:17:46;;;;;;;37.83;24.65;;;13.50;89.00;;;;;;4591495;19;20479;-19
2023/04/28 01:19:22;;;;;;;48.60;32.07;;;13.50;89.10;;;;;;4590288;19;20006;-21
2023/04/28 01:20:55;;;;;;;38.60;23.93;;;13.50;88.90;;;;;;4591893;19;20385;-21
2023/04/28 01:22:26;;;;;;;34.03;24.52;;;13.50;88.70;;;;;;4590532;19;20024;-21
2023/04/28 01:23:59;;;;;;;40.93;24.50;;;13.50;88.70;;;;;;4591346;19;20010;-20
2023/04/28 01:25:31;;;;;;;;;;;13.50;88.50;;;;;;4592583;19;20857;-21
2023/04/28 01:27:02;;;;;;;39.53;24.93;;;13.50;89.00;;;;;;4591334;19;19967;-20
2023/04/28 01:28:34;;;;;;;37.40;23.63;;;13.50;88.70;;;;;;4590475;19;20010;-20
2023/04/28 01:30:07;;;;;;;51.57;33.07;;;13.50;88.50;;;;;;4590794;19;20420;-20
2023/04/28 01:31:39;;;;;;;71.40;43.55;;;13.40;88.30;;;;;;4591771;19;20466;-21
2023/04/28 01:33:11;;;;;;;41.90;27.50;;;13.40;88.20;;;;;;4591804;19;20005;-20
2023/04/28 01:34:44;;;;;;;42.17;26.00;;;13.40;88.50;;;;;;4591635;19;20451;-20
2023/04/28 01:36:16;;;;;;;37.13;24.03;;;13.40;88.30;;;;;;4590445;19;20445;-21
2023/04/28 01:37:47;;;;;;;39.20;26.90;;;13.40;88.40;;;;;;4590686;19;21000;-20
2023/04/28 01:39:20;;;;;;;39.60;26.27;;;13.40;88.30;;;;;;4591368;19;20005;-20
2023/04/28 01:40:54;;;;;;;40.33;26.73;;;13.40;88.20;;;;;;4589342;19;20453;-21
2023/04/28 01:42:26;;;;;;;72.07;42.30;;;13.40;88.40;;;;;;4590146;19;20029;-21
2023/04/28 01:43:58;;;;;;;58.33;36.55;;;13.40;88.40;;;;;;4591125;19;20481;-21
2023/04/28 01:45:29;;;;;;;51.70;33.65;;;13.40;88.30;;;;;;4592150;19;20066;-20
2023/04/28 01:47:00;;;;;;;54.40;35.42;;;13.40;88.30;;;;;;4589956;19;20011;-20
2023/04/28 01:48:31;;;;;;;61.42;37.53;;;13.40;88.20;;;;;;4590952;19;20014;-21
2023/04/28 01:50:03;;;;;;;70.43;43.85;;;13.40;88.10;;;;;;4590122;19;20002;-21
2023/04/28 01:51:34;;;;;;;55.92;35.05;;;13.40;87.90;;;;;;4590440;19;20014;-20
2023/04/28 01:53:05;;;;;;;49.08;29.33;;;13.40;88.00;;;;;;4590294;19;20174;-20
2023/04/28 01:54:38;;;;;;;41.10;25.83;;;13.40;88.10;;;;;;4591248;19;20023;-21
2023/04/28 01:56:09;;;;;;;38.85;24.20;;;13.40;88.10;;;;;;4591726;19;20429;-21
2023/04/28 01:57:41;;;;;;;;;;;13.40;88.00;;;;;;4592161;19;20002;-20
2023/04/28 01:59:12;;;;;;;38.67;23.23;;;13.40;88.10;;;;;;4590853;19;19952;-20
2023/04/28 02:00:45;;;;;;;40.90;25.50;;;13.40;87.90;;;;;;4591037;19;20031;-21
2023/04/28 02:02:17;;;;;;;38.80;23.60;;;13.40;87.80;;;;;;4591615;19;20420;-21
2023/04/28 02:03:50;;;;;;;37.37;23.10;;;13.40;87.60;;;;;;4589531;19;20457;-22
2023/04/28 02:05:22;;;;;;;35.07;21.67;;;13.40;87.90;;;;;;4589725;19;20011;-21
2023/04/28 02:06:55;;;;;;;34.10;22.47;;;13.40;88.10;;;;;;4589771;19;20436;-21
2023/04/28 02:08:26;;;;;;;35.75;23.42;;;13.40;88.00;;;;;;4590725;19;20985;-21
2023/04/28 02:09:57;;;;;;;34.28;23.35;;;13.40;88.00;;;;;;4590491;19;20044;-21
2023/04/28 02:11:31;;;;;;;36.57;25.13;;;13.30;87.90;;;;;;4590621;19;20489;-21
2023/04/28 02:13:02;;;;;;;34.60;22.52;;;13.40;87.70;;;;;;4591018;19;20066;-20
2023/04/28 02:14:35;;;;;;;40.50;24.53;;;13.30;87.70;;;;;;4590762;19;20006;-21
2023/04/28 02:16:07;;;;;;;38.05;23.83;;;13.40;87.60;;;;;;4590304;19;20019;-20
2023/04/28 02:17:38;;;;;;;36.90;23.65;;;13.40;87.70;;;;;;4590836;19;20042;-20
2023/04/28 02:19:09;;;;;;;32.47;22.65;;;13.40;87.50;;;;;;4590903;19;20511;-20
2023/04/28 02:20:40;;;;;;;36.10;22.80;;;13.30;87.60;;;;;;4590469;19;20013;-20
2023/04/28 02:22:12;;;;;;;;;;;13.30;87.60;;;;;;4589043;19;20015;-20
2023/04/28 02:23:43;;;;;;;40.20;25.33;;;13.40;87.90;;;;;;4590435;19;19929;-21
2023/04/28 02:25:15;;;;;;;42.30;24.77;;;13.30;87.70;;;;;;4591059;19;20337;-21
2023/04/28 02:26:47;;;;;;;35.80;22.17;;;13.30;87.40;;;;;;4590268;19;20440;-21
2023/04/28 02:28:18;;;;;;;37.85;21.98;;;13.30;87.50;;;;;;4590286;19;20448;-20
2023/04/28 02:29:49;;;;;;;35.47;23.13;;;13.30;87.80;;;;;;4590544;19;20015;-21
2023/04/28 02:31:20;;;;;;;35.42;23.27;;;13.30;87.60;;;;;;4590635;19;20034;-21
2023/04/28 02:32:52;;;;;;;36.77;24.33;;;13.30;87.80;;;;;;4590060;19;20080;-21
2023/04/28 02:34:24;;;;;;;39.47;24.58;;;13.30;87.80;;;;;;4590070;19;20444;-20
2023/04/28 02:35:59;;;;;;;35.33;22.85;;;13.30;87.60;;;;;;4590040;19;20387;-21
2023/04/28 02:37:32;;;;;;;34.60;22.93;;;13.30;87.50;;;;;;4590499;19;20508;-21
2023/04/28 02:39:04;;;;;;;35.00;23.90;;;13.30;87.50;;;;;;4590056;19;20429;-21
2023/04/28 02:40:35;;;;;;;38.58;24.58;;;13.30;87.30;;;;;;4588090;19;20539;-21
2023/04/28 02:42:07;;;;;;;40.07;24.57;;;13.30;87.40;;;;;;4589974;19;20027;-20
2023/04/28 02:43:38;;;;;;;39.78;24.95;;;13.40;87.30;;;;;;4590442;19;20799;-21
2023/04/28 02:45:10;;;;;;;36.53;24.07;;;13.30;87.50;;;;;;4589900;19;20070;-21
2023/04/28 02:46:41;;;;;;;39.17;23.70;;;13.30;87.20;;;;;;4590231;19;20429;-20
2023/04/28 02:48:14;;;;;;;38.40;25.00;;;13.30;87.40;;;;;;4590218;19;20021;-21
2023/04/28 02:49:46;;;;;;;44.77;27.43;;;13.30;87.40;;;;;;4589705;19;20021;-21
2023/04/28 02:51:19;;;;;;;46.93;28.53;;;13.30;87.50;;;;;;4589957;19;20425;-21
2023/04/28 02:52:50;;;;;;;48.97;30.33;;;13.30;87.60;;;;;;4590001;19;20433;-20
2023/04/28 02:54:32;;;;;;;51.90;32.08;;;13.30;87.60;;;;;;4590323;19;20437;-21
2023/04/28 02:56:06;;;;;;;53.73;31.63;;;13.30;87.50;;;;;;4589526;19;20475;-21
2023/04/28 02:57:38;;;;;;;52.07;31.50;;;13.30;87.60;;;;;;4588634;19;20074;-21
2023/04/28 02:59:11;;;;;;;48.63;31.93;;;13.30;87.60;;;;;;4588835;19;20014;-21
2023/04/28 03:00:43;;;;;;;51.37;32.30;;;13.30;87.60;;;;;;4590491;19;20010;-21
2023/04/28 03:02:15;;;;;;;58.67;34.90;;;13.30;87.70;;;;;;4589980;19;20468;-21
2023/04/28 03:03:47;;;;;;;52.50;32.70;;;13.30;87.70;;;;;;4589836;19;20070;-20
2023/04/28 03:05:19;;;;;;;57.90;33.67;;;13.30;87.80;;;;;;4590073;19;20440;-20
2023/04/28 03:06:52;;;;;;;55.17;32.90;;;13.30;87.60;;;;;;4590230;19;20484;-20
2023/04/28 03:08:23;;;;;;;54.40;32.40;;;13.30;87.40;;;;;;4589495;19;20425;-20
2023/04/28 03:09:54;;;;;;;54.40;33.78;;;13.30;87.40;;;;;;4589676;19;20496;-21
2023/04/28 03:11:25;;;;;;;54.38;31.23;;;13.30;87.20;;;;;;4590065;19;20015;-21
2023/04/28 03:12:58;;;;;;;43.83;28.40;;;13.30;87.30;;;;;;4588541;19;20372;-21
2023/04/28 03:14:31;;;;;;;41.00;26.83;;;13.30;87.40;;;;;;4588325;19;20436;-21
2023/04/28 03:16:03;;;;;;;35.03;24.83;;;13.30;87.30;;;;;;4589306;19;20469;-21
2023/04/28 03:17:37;;;;;;;34.67;22.80;;;13.20;87.40;;;;;;4589971;19;20010;-20
2023/04/28 03:19:08;;;;;;;37.83;23.90;;;13.30;87.30;;;;;;4589697;19;20375;-20
2023/04/28 03:20:41;;;;;;;36.50;23.43;;;13.20;87.20;;;;;;4589269;19;20425;-20
2023/04/28 03:22:12;;;;;;;31.48;22.88;;;13.30;87.00;;;;;;4589829;19;20445;-21
2023/04/28 03:23:43;;;;;;;29.55;21.52;;;13.20;86.90;;;;;;4589156;19;20010;-21
2023/04/28 03:25:14;;;;;;;31.95;21.73;;;13.20;87.00;;;;;;4589641;19;20070;-20
2023/04/28 03:26:45;;;;;;;37.08;22.90;;;13.20;87.00;;;;;;4589732;19;20014;-21
2023/04/28 03:28:17;;;;;;;33.38;21.65;;;13.30;87.30;;;;;;4589480;19;20014;-22
2023/04/28 03:29:48;;;;;;;29.85;21.02;;;13.20;87.20;;;;;;4586887;19;20002;-21
2023/04/28 03:31:19;;;;;;;36.05;22.75;;;13.20;87.20;;;;;;4588325;19;20352;-21
2023/04/28 03:32:51;;;;;;;30.77;21.35;;;13.20;87.20;;;;;;4591596;19;20011;-21
2023/04/28 03:34:24;;;;;;;39.77;23.57;;;13.20;87.10;;;;;;4594501;19;20548;-21
2023/04/28 03:35:55;;;;;;;40.20;22.58;;;13.20;86.80;;;;;;4593616;19;20466;-20
2023/04/28 03:37:26;;;;;;;43.20;24.70;;;13.20;87.30;;;;;;4592681;19;20508;-21
2023/04/28 03:38:59;;;;;;;40.00;24.93;;;13.20;87.50;;;;;;4592778;19;20368;-20
2023/04/28 03:40:30;;;;;;;40.33;25.98;;;13.20;87.70;;;;;;4591708;19;20464;-22
2023/04/28 03:42:02;;;;;;;37.63;24.47;;;13.30;87.80;;;;;;4594235;19;20472;-21
2023/04/28 03:43:36;;;;;;;37.23;22.30;;;13.20;87.80;;;;;;4592566;19;20437;-21
2023/04/28 03:45:08;;;;;;;34.53;22.80;;;13.30;88.10;;;;;;4593377;19;20425;-20
2023/04/28 03:46:41;;;;;;;32.23;21.20;;;13.30;88.30;;;;;;4592700;19;20460;-20
2023/04/28 03:48:12;;;;;;;29.48;18.95;;;13.30;88.20;;;;;;4593662;19;20413;-21
2023/04/28 03:49:44;;;;;;;25.27;17.60;;;13.20;88.30;;;;;;4593590;19;20018;-21
2023/04/28 03:51:17;;;;;;;24.40;16.17;;;13.20;88.70;;;;;;4592574;19;20433;-21
2023/04/28 03:52:50;;;;;;;20.10;14.03;;;13.20;88.70;;;;;;4593049;19;21102;-20
2023/04/28 03:54:22;;;;;;;18.47;12.80;;;13.20;88.80;;;;;;4592237;19;20449;-21
2023/04/28 03:55:55;;;;;;;19.53;12.67;;;13.20;88.80;;;;;;4592251;19;20529;-21
2023/04/28 03:57:26;;;;;;;18.85;12.85;;;13.20;89.00;;;;;;4592440;19;21036;-21
2023/04/28 03:58:57;;;;;;;18.33;12.98;;;13.30;89.30;;;;;;4593437;19;20028;-21
2023/04/28 04:00:31;;;;;;;20.97;14.23;;;13.20;89.20;;;;;;4591612;19;20077;-20
2023/04/28 04:02:02;;;;;;;18.25;12.70;;;13.30;89.20;;;;;;4593541;19;21012;-20
2023/04/28 04:03:33;;;;;;;17.50;12.65;;;13.30;89.30;;;;;;4592545;19;20012;-20
2023/04/28 04:05:05;;;;;;;16.27;11.82;;;13.30;89.30;;;;;;4593585;19;19998;-21
2023/04/28 04:06:36;;;;;;;15.60;11.45;;;13.30;89.50;;;;;;4593042;19;20062;-21
2023/04/28 04:08:09;;;;;;;19.27;12.43;;;13.30;89.60;;;;;;4593152;19;20014;-21
2023/04/28 04:09:40;;;;;;;17.20;12.65;;;13.30;89.60;;;;;;4593593;19;21003;-20
2023/04/28 04:11:12;;;;;;;19.23;13.40;;;13.30;89.70;;;;;;4593967;19;20329;-20
2023/04/28 04:12:43;;;;;;;20.52;14.00;;;13.30;89.70;;;;;;4593001;19;20452;-21
2023/04/28 04:14:17;;;;;;;20.47;14.30;;;13.30;89.90;;;;;;4593417;19;20417;-20
2023/04/28 04:15:51;;;;;;;21.33;16.03;;;13.30;90.00;;;;;;4593210;19;20405;-21
2023/04/28 04:17:23;;;;;;;20.60;14.67;;;13.30;90.00;;;;;;4591926;19;20014;-21
2023/04/28 04:18:57;;;;;;;21.77;15.67;;;13.30;90.00;;;;;;4592418;19;20429;-22
2023/04/28 04:20:30;;;;;;;22.27;14.63;;;13.30;90.10;;;;;;4590165;19;20472;-20
2023/04/28 04:22:02;;;;;;;26.23;17.63;;;13.30;90.20;;;;;;4592468;19;20445;-21
2023/04/28 04:23:34;;;;;;;19.75;15.52;;;13.30;90.20;;;;;;4591957;19;20527;-21
2023/04/28 04:25:07;;;;;;;21.90;14.57;;;13.30;90.20;;;;;;4591618;19;20088;-21
2023/04/28 04:26:38;;;;;;;18.83;13.95;;;13.30;90.20;;;;;;4592373;19;20437;-21
2023/04/28 04:28:10;;;;;;;23.98;14.73;;;13.30;90.20;;;;;;4592461;19;20030;-21
2023/04/28 04:29:41;;;;;;;23.38;15.75;;;13.30;90.20;;;;;;4592494;19;20015;-20
2023/04/28 04:31:14;;;;;;;21.87;16.17;;;13.30;90.30;;;;;;4592627;19;20014;-21
2023/04/28 04:32:47;;;;;;;22.47;15.67;;;13.30;90.40;;;;;;4593044;19;20495;-21
2023/04/28 04:34:19;;;;;;;22.53;15.43;;;13.30;90.40;;;;;;4593283;19;19999;-20
2023/04/28 04:35:50;;;;;;;21.92;14.98;;;13.30;90.40;;;;;;4591599;19;21000;-21
2023/04/28 04:37:23;;;;;;;24.80;15.70;;;13.30;90.60;;;;;;4592805;19;20410;-21
2023/04/28 04:38:55;;;;;;;24.70;16.57;;;13.30;90.60;;;;;;4591685;19;20658;-20
2023/04/28 04:40:26;;;;;;;23.40;16.80;;;13.30;90.60;;;;;;4591157;19;20468;-20
2023/04/28 04:42:01;;;;;;;27.13;19.70;;;13.30;90.70;;;;;;4592020;19;20014;-21
2023/04/28 04:43:32;;;;;;;34.73;27.37;;;13.30;90.70;;;;;;4591404;19;20044;-21
2023/04/28 04:45:04;;;;;;;36.83;29.67;;;13.30;90.80;;;;;;4591263;19;20942;-20
2023/04/28 04:46:36;;;;;;;41.87;32.73;;;13.40;90.90;;;;;;4591666;19;20018;-21
2023/04/28 04:48:07;;;;;;;38.03;26.08;;;13.30;90.90;;;;;;4591114;19;20869;-21
2023/04/28 04:49:38;;;;;;;30.80;22.38;;;13.40;90.90;;;;;;4591156;19;20010;-21
2023/04/28 04:51:11;;;;;;;28.90;19.60;;;13.40;91.00;;;;;;4592147;19;20036;-20
2023/04/28 04:52:42;;;;;;;30.02;21.23;;;13.40;91.00;;;;;;4593799;19;20445;-21
2023/04/28 04:54:14;;;;;;;29.92;21.73;;;13.40;91.10;;;;;;4591855;19;20073;-21
2023/04/28 04:55:47;;;;;;;40.90;28.20;;;13.40;91.10;;;;;;4591433;19;20344;-20
2023/04/28 04:57:18;;;;;;;57.15;35.67;;;13.40;91.20;;;;;;4592267;19;20421;-22
2023/04/28 04:58:51;;;;;;;67.53;42.50;;;13.40;91.20;;;;;;4589529;19;20490;-21
2023/04/28 05:00:23;;;;;;;57.63;36.60;;;13.40;91.20;;;;;;4588923;19;20369;-21
2023/04/28 05:01:56;;;;;;;58.37;35.53;;;13.50;91.30;;;;;;4590505;19;20491;-20
2023/04/28 05:03:27;;;;;;;61.72;39.90;;;13.50;91.20;;;;;;4592002;19;20002;-21
2023/04/28 05:04:59;;;;;;;67.38;39.60;;;13.50;91.30;;;;;;4589623;19;20607;-21
2023/04/28 05:06:36;;;;;;;52.77;34.37;;;13.60;91.40;;;;;;4590148;19;20015;-21
2023/04/28 05:08:08;;;;;;;44.53;30.43;;;13.60;91.40;;;;;;4591323;19;20457;-20
2023/04/28 05:09:39;;;;;;;43.20;26.50;;;13.60;91.50;;;;;;4592005;19;20596;-20
2023/04/28 05:11:11;;;;;;;34.83;22.77;;;13.70;91.60;;;;;;4589611;19;20011;-21
2023/04/28 05:12:43;;;;;;;31.85;22.35;;;13.70;91.60;;;;;;4589911;19;20110;-21
2023/04/28 05:14:16;;;;;;;30.70;23.67;;;13.70;91.70;;;;;;4590825;19;20734;-20
2023/04/28 05:15:47;;;;;;;37.15;26.75;;;11.70;92.40;;;;;;4592826;19;20852;-21
2023/04/28 05:17:20;;;;;;;34.67;25.60;;;10.10;95.10;;;;;;4589517;19;20350;-21
2023/04/28 05:18:53;;;;;;;37.63;26.17;;;9.30;97.00;;;;;;4589315;19;21033;-20
2023/04/28 05:20:24;;;;;;;37.58;26.27;;;8.90;97.90;;;;;;4588823;19;20576;-21
2023/04/28 05:21:56;;;;;;;;;;;8.70;98.80;;;;;;4590883;19;20027;-21
2023/04/28 05:23:28;;;;;;;38.30;26.67;;;8.70;99.00;;;;;;4589295;19;19919;-22
2023/04/28 05:24:59;;;;;;;33.25;26.15;;;8.60;99.40;;;;;;4589350;19;20429;-22
2023/04/28 05:26:30;;;;;;;34.80;26.85;;;8.60;99.90;;;;;;4589801;19;20002;-20
2023/04/28 05:28:06;;;;;;;35.67;28.27;;;8.60;99.90;;;;;;4589149;19;20034;-21
2023/04/28 05:29:38;;;;;;;35.53;26.97;;;8.50;99.90;;;;;;4589315;19;20010;-20
2023/04/28 05:31:09;;;;;;;34.95;26.90;;;8.60;99.90;;;;;;4592515;19;20461;-20
2023/04/28 05:32:41;;;;;;;;;;;8.60;99.90;;;;;;4594044;19;20031;-20
2023/04/28 05:34:12;;;;;;;37.00;26.63;;;8.50;99.90;;;;;;4592678;19;19923;-20
2023/04/28 05:35:45;;;;;;;31.10;22.87;;;8.60;99.90;;;;;;4591614;19;20027;-20
2023/04/28 05:37:18;;;;;;;34.73;22.30;;;9.10;99.90;;;;;;4591929;19;21008;-21
2023/04/28 05:38:49;;;;;;;31.23;20.42;;;9.70;99.90;;;;;;4591831;19;20453;-20
2023/04/28 05:40:20;;;;;;;30.67;20.70;;;10.20;99.90;;;;;;4591727;19;20028;-20
2023/04/28 05:41:52;;;;;;;31.85;20.42;;;10.70;99.90;;;;;;4593203;19;20006;-21
2023/04/28 05:43:24;;;;;;;32.00;20.90;;;11.10;99.10;;;;;;4591694;19;20014;-21
2023/04/28 05:44:55;;;;;;;32.10;21.27;;;11.50;98.60;;;;;;4593467;19;20560;-21
2023/04/28 05:46:28;;;;;;;33.70;20.57;;;11.80;98.20;;;;;;4593309;19;20010;-20
2023/04/28 05:47:59;;;;;;;35.95;22.60;;;12.00;97.70;;;;;;4592424;19;20449;-21
2023/04/28 05:49:30;;;;;;;36.53;22.17;;;12.20;97.40;;;;;;4592855;19;20010;-20
2023/04/28 05:51:02;;;;;;;34.50;22.42;;;12.40;97.10;;;;;;4591506;19;20017;-20
2023/04/28 05:52:36;;;;;;;34.30;22.37;;;12.60;96.90;;;;;;4591738;19;20007;-22
2023/04/28 05:54:07;;;;;;;33.05;22.83;;;12.80;96.80;;;;;;4591062;19;20876;-20
2023/04/28 05:55:40;;;;;;;31.67;21.40;;;12.90;96.70;;;;;;4590238;19;20002;-21
2023/04/28 05:57:11;;;;;;;32.15;20.70;;;13.10;96.60;;;;;;4590151;19;20564;-21
2023/04/28 05:58:46;;;;;;;31.88;19.23;;;13.20;96.30;;;;;;4590535;19;20007;-20
2023/04/28 06:00:17;;;;;;;32.90;21.40;;;13.30;96.20;;;;;;4588809;19;20015;-21
2023/04/28 06:01:49;;;;;;;29.10;21.05;;;13.40;96.10;;;;;;4592097;19;20804;-21
2023/04/28 06:03:20;;;;;;;28.60;18.83;;;13.50;95.90;;;;;;4590697;19;20017;-20
2023/04/28 06:04:53;;;;;;;25.30;16.53;;;13.60;96.00;;;;;;4590752;19;20038;-20
2023/04/28 06:06:26;;;;;;;29.40;18.85;;;13.80;96.00;;;;;;4590459;19;19998;-21
2023/04/28 06:08:02;;;;;;;27.47;17.87;;;14.00;95.50;;;;;;4589978;19;20009;-21
2023/04/28 06:09:33;;;;;;;27.23;18.57;;;14.00;95.40;;;;;;4589095;19;20543;-21
2023/04/28 06:11:06;;;;;;;28.47;17.93;;;14.00;95.30;;;;;;4589721;19;20389;-21
2023/04/28 06:12:38;;;;;;;25.92;17.95;;;14.00;95.40;;;;;;4589226;19;20121;-21
2023/04/28 06:14:10;;;;;;;23.83;16.27;;;14.00;95.10;;;;;;4588389;19;20029;-20
2023/04/28 06:15:43;;;;;;;28.33;17.53;;;14.00;94.80;;;;;;4590308;19;20022;-21
2023/04/28 06:17:14;;;;;;;18.15;12.43;;;14.00;94.70;;;;;;4587802;19;20018;-22
2023/04/28 06:18:47;;;;;;;15.30;11.47;;;14.00;94.20;;;;;;4588141;19;20090;-20
2023/04/28 06:20:18;;;;;;;14.93;11.50;;;13.30;93.40;;;;;;4588215;19;20596;-20
2023/04/28 06:21:51;;;;;;;14.67;10.50;;;11.60;94.60;;;;;;4588205;19;20021;-20
2023/04/28 06:23:23;;;;;;;14.73;11.00;;;10.80;95.30;;;;;;4588523;19;21100;-20
2023/04/28 06:24:54;;;;;;;16.40;12.02;;;10.40;96.10;;;;;;4588151;19;20501;-20
2023/04/28 07:02:12;;;;;;;12.73;9.33;;;10.50;95.30;;;;;;4583412;19;21251;-20
2023/04/28 07:03:43;;;;;;;10.45;7.85;;;10.50;95.90;;;;;;4587969;19;20846;-21
2023/04/28 07:05:15;;;;;;;9.88;7.65;;;10.50;95.70;;;;;;4588837;19;20087;-20
2023/04/28 07:06:46;;;;;;;11.23;8.60;;;10.60;95.60;;;;;;4588608;19;20017;-21
2023/04/28 07:08:17;;;;;;;10.38;7.55;;;10.60;94.90;;;;;;4593549;19;20015;-20
2023/04/28 07:09:48;;;;;;;9.70;6.88;;;10.60;94.20;;;;;;4593978;19;20014;-21
2023/04/28 07:11:22;;;;;;;10.70;7.87;;;10.70;95.30;;;;;;4593856;19;20406;-21
2023/04/28 07:12:53;;;;;;;8.60;6.87;;;10.70;94.90;;;;;;4593015;19;20806;-21
2023/04/28 07:14:43;;;;;;;7.65;5.07;;;10.70;94.20;;;;;;4593041;19;20467;-20
2023/04/28 07:16:14;;;;;;;9.07;5.63;;;10.70;93.10;;;;;;4593407;19;20007;-20
2023/04/28 07:17:46;;;;;;;8.60;5.63;;;10.70;94.70;;;;;;4593364;19;20437;-20
2023/04/28 07:19:17;;;;;;;8.95;5.18;;;10.70;94.00;;;;;;4594034;19;20771;-20
2023/04/28 07:20:50;;;;;;;7.17;4.70;;;10.80;94.00;;;;;;4592329;19;20460;-20
2023/04/28 07:22:23;;;;;;;5.57;3.50;;;10.80;92.40;;;;;;4592572;19;20461;-20
2023/04/28 07:23:55;;;;;;;6.68;3.30;;;11.00;93.40;;;;;;4593653;19;20806;-20
2023/04/28 07:25:27;;;;;;;5.30;3.40;;;11.30;93.20;;;;;;4593984;19;20009;-21
2023/04/28 07:26:58;;;;;;;8.43;3.80;;;11.70;93.10;;;;;;4594818;19;20437;-20
2023/04/28 07:28:29;;;;;;;8.13;4.25;;;12.00;93.00;;;;;;4592320;19;20010;-20
2023/04/28 07:30:01;;;;;;;7.55;4.63;;;12.20;92.60;;;;;;4592870;19;20495;-20
2023/04/28 07:31:32;;;;;;;9.25;4.32;;;12.50;92.30;;;;;;4593732;19;20002;-21
2023/04/28 07:33:03;;;;;;;8.73;4.18;;;12.70;92.10;;;;;;4594002;19;20005;-20
2023/04/28 07:34:35;;;;;;;6.88;3.50;;;12.80;92.30;;;;;;4593525;19;20474;-20
2023/04/28 07:36:07;;;;;;;6.40;3.40;;;13.00;91.60;;;;;;4593133;19;20014;-21
2023/04/28 07:37:39;;;;;;;6.57;2.30;;;13.10;91.40;;;;;;4592888;19;20463;-21
2023/04/28 07:39:10;;;;;;;3.10;1.88;;;13.10;90.60;;;;;;4593504;19;20532;-21
2023/04/28 07:40:42;;;;;;;6.03;3.38;;;13.20;90.20;;;;;;4592084;19;20014;-21
2023/04/28 07:42:17;;;;;;;6.97;3.13;;;13.30;90.10;;;;;;4592140;19;20078;-20
2023/04/28 07:43:49;;;;;;;7.40;3.73;;;13.40;90.10;;;;;;4592269;19;20439;-20
2023/04/28 07:45:21;;;;;;;6.70;3.47;;;13.50;89.90;;;;;;4591522;19;20011;-21
2023/04/28 07:46:52;;;;;;;7.57;3.33;;;13.50;90.30;;;;;;4592810;19;20467;-21
2023/04/28 07:48:26;;;;;;;9.30;3.27;;;13.60;90.50;;;;;;4593341;19;20011;-20
2023/04/28 07:49:59;;;;;;;7.70;4.00;;;13.70;90.20;;;;;;4592276;19;20099;-21
2023/04/28 07:51:30;;;;;;;7.43;3.83;;;13.70;90.10;;;;;;4592501;19;20495;-20
2023/04/28 07:53:01;;;;;;;6.97;3.75;;;13.70;89.50;;;;;;4590689;19;20029;-20
2023/04/28 07:54:32;;;;;;;6.80;3.88;;;13.80;89.10;;;;;;4591850;19;20343;-20
2023/04/28 07:56:04;;;;;;;9.50;3.40;;;13.90;89.20;;;;;;4593247;19;20006;-21
2023/04/28 07:57:36;;;;;;;10.38;3.38;;;13.90;89.90;;;;;;4592160;19;20010;-21
2023/04/28 07:59:08;;;;;;;5.73;2.70;;;14.00;89.50;;;;;;4592199;19;20040;-21
2023/04/28 08:00:40;;;;;;;7.83;3.67;;;14.00;89.40;;;;;;4591214;19;20070;-21
2023/04/28 08:02:13;;;;;;;8.77;3.35;;;14.00;89.10;;;;;;4592609;19;20022;-21
2023/04/28 08:03:46;;;;;;;6.50;3.77;;;14.10;88.90;;;;;;4592959;19;20031;-21
2023/04/28 08:05:17;;;;;;;4.90;3.13;;;14.10;88.90;;;;;;4593423;19;20044;-21
2023/04/28 08:06:49;;;;;;;7.07;2.73;;;14.10;88.50;;;;;;4594000;19;20328;-20
2023/04/28 08:08:22;;;;;;;5.53;2.83;;;14.20;88.00;;;;;;4592799;19;20021;-21
2023/04/28 08:09:54;;;;;;;6.25;3.35;;;14.20;88.00;;;;;;4591578;19;20074;-21
2023/04/28 08:11:27;;;;;;;6.60;3.23;;;14.20;87.80;;;;;;4592219;19;20554;-21
2023/04/28 08:12:58;;;;;;;6.28;3.30;;;14.30;87.80;;;;;;4593584;19;20011;-20
2023/04/28 08:14:29;;;;;;;6.80;3.22;;;14.20;87.60;;;;;;4592734;19;20011;-20
2023/04/28 08:16:00;;;;;;;6.80;2.60;;;14.30;88.30;;;;;;4591965;19;20018;-20
2023/04/28 08:17:32;;;;;;;4.43;2.25;;;14.30;88.60;;;;;;4592942;19;20002;-21
2023/04/28 08:19:03;;;;;;;5.95;2.60;;;14.40;87.30;;;;;;4591797;19;20011;-20
2023/04/28 08:20:35;;;;;;;5.93;2.53;;;14.40;86.40;;;;;;4590182;19;20018;-21
2023/04/28 08:22:09;;;;;;;4.23;2.30;;;14.40;86.60;;;;;;4592246;19;20018;-23
2023/04/28 08:23:40;;;;;;;6.20;1.90;;;14.40;86.50;;;;;;4593360;19;20448;-20
2023/04/28 08:25:11;;;;;;;6.45;1.95;;;14.40;85.00;;;;;;4593278;19;19999;-21
2023/04/28 08:26:43;;;;;;;3.73;2.17;;;14.40;82.00;;;;;;4589778;19;20010;-20